sensor_id;sensor_type;location;lat;lon;timestamp;temperature;humidity
702;DHT22;334;48.808;9.222;2022-08-21T00:00:16;21.80;1.00
702;DHT22;334;48.808;9.222;2022-08-21T00:01:21;21.70;1.00
702;DHT22;334;48.808;9.222;2022-08-21T00:02:26;21.70;1.00
702;DHT22;334;48.808;9.222;2022-08-21T00:03:28;21.70;1.00
702;DHT22;334;48.808;9.222;2022-08-21T00:04:30;21.70;1.00
702;DHT22;334;48.808;9.222;2022-08-21T00:05:38;21.70;1.00
702;DHT22;334;48.808;9.222;2022-08-21T00:06:41;21.60;1.00
702;DHT22;334;48.808;9.222;2022-08-21T00:07:43;21.60;1.00
702;DHT22;334;48.808;9.222;2022-08-21T00:08:47;21.60;1.00
702;DHT22;334;48.808;9.222;2022-08-21T00:09:49;21.60;1.00
702;DHT22;334;48.808;9.222;2022-08-21T00:10:51;21.60;1.00
702;DHT22;334;48.808;9.222;2022-08-21T00:11:53;21.60;1.00
702;DHT22;334;48.808;9.222;2022-08-21T00:12:55;21.60;1.00
702;DHT22;334;48.808;9.222;2022-08-21T00:13:57;21.50;1.00
702;DHT22;334;48.808;9.222;2022-08-21T00:15:05;21.50;1.00
702;DHT22;334;48.808;9.222;2022-08-21T00:16:09;21.50;1.00
702;DHT22;334;48.808;9.222;2022-08-21T00:17:11;21.50;1.00
702;DHT22;334;48.808;9.222;2022-08-21T00:18:13;21.50;1.00
702;DHT22;334;48.808;9.222;2022-08-21T00:19:16;21.40;1.00
702;DHT22;334;48.808;9.222;2022-08-21T00:20:19;21.40;1.00
702;DHT22;334;48.808;9.222;2022-08-21T00:21:21;21.40;1.00
702;DHT22;334;48.808;9.222;2022-08-21T00:22:23;21.40;1.00
702;DHT22;334;48.808;9.222;2022-08-21T00:23:25;21.40;1.00
702;DHT22;334;48.808;9.222;2022-08-21T00:24:27;21.40;1.00
702;DHT22;334;48.808;9.222;2022-08-21T00:25:29;21.40;1.00
702;DHT22;334;48.808;9.222;2022-08-21T00:26:31;21.40;1.00
702;DHT22;334;48.808;9.222;2022-08-21T00:27:33;21.40;1.00
702;DHT22;334;48.808;9.222;2022-08-21T00:28:35;21.40;1.00
702;DHT22;334;48.808;9.222;2022-08-21T00:29:37;21.30;1.00
702;DHT22;334;48.808;9.222;2022-08-21T00:30:40;21.40;1.00
702;DHT22;334;48.808;9.222;2022-08-21T00:31:43;21.30;1.00
702;DHT22;334;48.808;9.222;2022-08-21T00:32:45;21.30;1.00
702;DHT22;334;48.808;9.222;2022-08-21T00:33:47;21.40;1.00
702;DHT22;334;48.808;9.222;2022-08-21T00:34:49;21.30;1.00
702;DHT22;334;48.808;9.222;2022-08-21T00:35:53;21.30;1.00
702;DHT22;334;48.808;9.222;2022-08-21T00:36:55;21.30;1.00
702;DHT22;334;48.808;9.222;2022-08-21T00:37:57;21.30;1.00
702;DHT22;334;48.808;9.222;2022-08-21T00:38:59;21.30;1.00
702;DHT22;334;48.808;9.222;2022-08-21T00:40:07;21.30;1.00
702;DHT22;334;48.808;9.222;2022-08-21T00:41:11;21.30;1.00
702;DHT22;334;48.808;9.222;2022-08-21T00:42:32;21.30;1.00
702;DHT22;334;48.808;9.222;2022-08-21T00:43:36;21.20;1.00
702;DHT22;334;48.808;9.222;2022-08-21T00:44:38;21.20;1.00
702;DHT22;334;48.808;9.222;2022-08-21T00:45:41;21.20;1.00
702;DHT22;334;48.808;9.222;2022-08-21T00:46:43;21.20;1.00
702;DHT22;334;48.808;9.222;2022-08-21T00:47:45;21.20;1.00
702;DHT22;334;48.808;9.222;2022-08-21T00:48:47;21.20;1.00
702;DHT22;334;48.808;9.222;2022-08-21T00:49:49;21.20;1.00
702;DHT22;334;48.808;9.222;2022-08-21T00:51:02;21.20;1.00
702;DHT22;334;48.808;9.222;2022-08-21T00:52:08;21.10;1.00
702;DHT22;334;48.808;9.222;2022-08-21T00:53:11;21.10;1.00
702;DHT22;334;48.808;9.222;2022-08-21T00:54:13;21.10;1.00
702;DHT22;334;48.808;9.222;2022-08-21T00:55:20;21.10;1.00
702;DHT22;334;48.808;9.222;2022-08-21T00:56:24;21.10;1.00
702;DHT22;334;48.808;9.222;2022-08-21T00:57:33;21.00;1.00
702;DHT22;334;48.808;9.222;2022-08-21T00:58:36;21.00;1.00
702;DHT22;334;48.808;9.222;2022-08-21T00:59:40;21.00;1.00
702;DHT22;334;48.808;9.222;2022-08-21T01:00:46;21.00;1.00
702;DHT22;334;48.808;9.222;2022-08-21T01:01:50;21.00;1.00
702;DHT22;334;48.808;9.222;2022-08-21T01:02:55;21.00;1.00
702;DHT22;334;48.808;9.222;2022-08-21T01:03:57;21.00;1.00
702;DHT22;334;48.808;9.222;2022-08-21T01:04:59;21.00;1.00
702;DHT22;334;48.808;9.222;2022-08-21T01:06:01;21.00;1.00
702;DHT22;334;48.808;9.222;2022-08-21T01:07:05;21.00;1.00
702;DHT22;334;48.808;9.222;2022-08-21T01:08:08;20.90;1.00
702;DHT22;334;48.808;9.222;2022-08-21T01:09:10;20.90;1.00
702;DHT22;334;48.808;9.222;2022-08-21T01:10:13;20.90;1.00
702;DHT22;334;48.808;9.222;2022-08-21T01:11:25;20.90;1.00
702;DHT22;334;48.808;9.222;2022-08-21T01:12:27;21.00;1.10
702;DHT22;334;48.808;9.222;2022-08-21T01:13:31;20.90;1.10
702;DHT22;334;48.808;9.222;2022-08-21T01:14:34;20.90;1.00
702;DHT22;334;48.808;9.222;2022-08-21T01:15:39;20.90;1.00
702;DHT22;334;48.808;9.222;2022-08-21T01:16:46;20.90;1.10
702;DHT22;334;48.808;9.222;2022-08-21T01:17:49;20.90;1.00
702;DHT22;334;48.808;9.222;2022-08-21T01:18:52;20.80;1.00
702;DHT22;334;48.808;9.222;2022-08-21T01:19:58;20.80;1.10
702;DHT22;334;48.808;9.222;2022-08-21T01:21:15;20.80;1.40
702;DHT22;334;48.808;9.222;2022-08-21T01:22:21;20.80;1.20
702;DHT22;334;48.808;9.222;2022-08-21T01:23:23;20.80;1.00
702;DHT22;334;48.808;9.222;2022-08-21T01:24:25;20.80;1.00
702;DHT22;334;48.808;9.222;2022-08-21T01:25:27;20.80;1.20
702;DHT22;334;48.808;9.222;2022-08-21T01:26:31;20.70;1.30
702;DHT22;334;48.808;9.222;2022-08-21T01:27:36;20.70;1.40
702;DHT22;334;48.808;9.222;2022-08-21T01:28:46;20.70;1.50
702;DHT22;334;48.808;9.222;2022-08-21T01:29:57;20.70;1.60
702;DHT22;334;48.808;9.222;2022-08-21T01:31:01;20.70;1.60
702;DHT22;334;48.808;9.222;2022-08-21T01:32:11;20.70;1.50
702;DHT22;334;48.808;9.222;2022-08-21T01:33:14;20.70;1.60
702;DHT22;334;48.808;9.222;2022-08-21T01:34:15;20.70;1.50
702;DHT22;334;48.808;9.222;2022-08-21T01:35:19;20.70;1.50
702;DHT22;334;48.808;9.222;2022-08-21T01:36:21;20.70;1.50
702;DHT22;334;48.808;9.222;2022-08-21T01:37:23;20.70;1.50
702;DHT22;334;48.808;9.222;2022-08-21T01:38:25;20.70;1.40
702;DHT22;334;48.808;9.222;2022-08-21T01:39:28;20.70;1.30
702;DHT22;334;48.808;9.222;2022-08-21T01:40:30;20.70;1.10
702;DHT22;334;48.808;9.222;2022-08-21T01:41:32;20.70;1.30
702;DHT22;334;48.808;9.222;2022-08-21T01:42:35;20.70;1.20
702;DHT22;334;48.808;9.222;2022-08-21T01:43:36;20.70;1.10
702;DHT22;334;48.808;9.222;2022-08-21T01:46:58;20.70;1.50
702;DHT22;334;48.808;9.222;2022-08-21T01:48:00;20.70;1.20
702;DHT22;334;48.808;9.222;2022-08-21T01:49:03;20.60;1.00
702;DHT22;334;48.808;9.222;2022-08-21T01:50:09;20.60;1.20
702;DHT22;334;48.808;9.222;2022-08-21T01:51:12;20.60;1.30
702;DHT22;334;48.808;9.222;2022-08-21T01:52:14;20.60;1.30
702;DHT22;334;48.808;9.222;2022-08-21T01:53:15;20.60;1.30
702;DHT22;334;48.808;9.222;2022-08-21T01:54:18;20.60;1.30
702;DHT22;334;48.808;9.222;2022-08-21T01:55:20;20.60;1.30
702;DHT22;334;48.808;9.222;2022-08-21T01:56:24;20.60;1.20
702;DHT22;334;48.808;9.222;2022-08-21T01:57:26;20.50;1.20
702;DHT22;334;48.808;9.222;2022-08-21T01:58:28;20.50;1.10
702;DHT22;334;48.808;9.222;2022-08-21T01:59:29;20.50;1.10
702;DHT22;334;48.808;9.222;2022-08-21T02:00:31;20.50;1.40
702;DHT22;334;48.808;9.222;2022-08-21T02:01:33;20.50;1.60
702;DHT22;334;48.808;9.222;2022-08-21T02:02:35;20.50;1.40
702;DHT22;334;48.808;9.222;2022-08-21T02:03:37;20.40;1.30
702;DHT22;334;48.808;9.222;2022-08-21T02:04:39;20.40;1.50
702;DHT22;334;48.808;9.222;2022-08-21T02:05:42;20.40;1.50
702;DHT22;334;48.808;9.222;2022-08-21T02:06:44;20.40;1.80
702;DHT22;334;48.808;9.222;2022-08-21T02:07:51;20.40;1.80
702;DHT22;334;48.808;9.222;2022-08-21T02:08:53;20.40;1.80
702;DHT22;334;48.808;9.222;2022-08-21T02:09:55;20.40;1.70
702;DHT22;334;48.808;9.222;2022-08-21T02:10:58;20.40;1.60
702;DHT22;334;48.808;9.222;2022-08-21T02:12:01;20.40;1.50
702;DHT22;334;48.808;9.222;2022-08-21T02:13:04;20.40;1.40
702;DHT22;334;48.808;9.222;2022-08-21T02:14:10;20.30;1.40
702;DHT22;334;48.808;9.222;2022-08-21T02:15:13;20.30;1.60
702;DHT22;334;48.808;9.222;2022-08-21T02:16:15;20.30;1.80
702;DHT22;334;48.808;9.222;2022-08-21T02:17:20;20.30;1.90
702;DHT22;334;48.808;9.222;2022-08-21T02:18:21;20.30;1.90
702;DHT22;334;48.808;9.222;2022-08-21T02:19:23;20.20;1.80
702;DHT22;334;48.808;9.222;2022-08-21T02:21:30;20.20;2.20
702;DHT22;334;48.808;9.222;2022-08-21T02:22:32;20.20;2.10
702;DHT22;334;48.808;9.222;2022-08-21T02:23:34;20.20;2.20
702;DHT22;334;48.808;9.222;2022-08-21T02:24:37;20.20;2.20
702;DHT22;334;48.808;9.222;2022-08-21T02:25:58;20.20;2.30
702;DHT22;334;48.808;9.222;2022-08-21T02:26:59;20.20;2.40
702;DHT22;334;48.808;9.222;2022-08-21T02:28:10;20.20;2.30
702;DHT22;334;48.808;9.222;2022-08-21T02:29:13;20.20;2.50
702;DHT22;334;48.808;9.222;2022-08-21T02:30:18;20.20;2.50
702;DHT22;334;48.808;9.222;2022-08-21T02:31:20;20.20;2.60
702;DHT22;334;48.808;9.222;2022-08-21T02:32:21;20.10;2.50
702;DHT22;334;48.808;9.222;2022-08-21T02:33:24;20.10;2.50
702;DHT22;334;48.808;9.222;2022-08-21T02:34:26;20.10;2.60
702;DHT22;334;48.808;9.222;2022-08-21T02:35:30;20.10;3.30
702;DHT22;334;48.808;9.222;2022-08-21T02:36:32;20.10;2.70
702;DHT22;334;48.808;9.222;2022-08-21T02:37:33;20.10;2.80
702;DHT22;334;48.808;9.222;2022-08-21T02:38:37;20.00;2.70
702;DHT22;334;48.808;9.222;2022-08-21T02:39:39;20.10;2.70
702;DHT22;334;48.808;9.222;2022-08-21T02:40:43;20.10;2.50
702;DHT22;334;48.808;9.222;2022-08-21T02:41:48;20.00;2.60
702;DHT22;334;48.808;9.222;2022-08-21T02:42:50;20.00;2.60
702;DHT22;334;48.808;9.222;2022-08-21T02:43:52;20.00;2.90
702;DHT22;334;48.808;9.222;2022-08-21T02:44:54;20.00;2.80
702;DHT22;334;48.808;9.222;2022-08-21T02:45:57;19.90;2.80
702;DHT22;334;48.808;9.222;2022-08-21T02:46:58;20.00;2.90
702;DHT22;334;48.808;9.222;2022-08-21T02:48:06;20.00;3.00
702;DHT22;334;48.808;9.222;2022-08-21T02:49:09;19.90;3.00
702;DHT22;334;48.808;9.222;2022-08-21T02:50:11;19.90;2.80
702;DHT22;334;48.808;9.222;2022-08-21T02:51:26;19.90;2.80
702;DHT22;334;48.808;9.222;2022-08-21T02:52:28;19.90;3.20
702;DHT22;334;48.808;9.222;2022-08-21T02:53:31;19.90;3.00
702;DHT22;334;48.808;9.222;2022-08-21T02:54:33;19.90;3.00
702;DHT22;334;48.808;9.222;2022-08-21T02:55:37;19.90;3.10
702;DHT22;334;48.808;9.222;2022-08-21T02:56:39;19.90;3.10
702;DHT22;334;48.808;9.222;2022-08-21T02:57:41;19.90;3.00
702;DHT22;334;48.808;9.222;2022-08-21T02:58:49;19.90;3.30
702;DHT22;334;48.808;9.222;2022-08-21T02:59:51;19.90;3.40
702;DHT22;334;48.808;9.222;2022-08-21T03:00:53;19.80;3.30
702;DHT22;334;48.808;9.222;2022-08-21T03:01:55;19.90;3.50
702;DHT22;334;48.808;9.222;2022-08-21T03:02:58;19.80;3.40
702;DHT22;334;48.808;9.222;2022-08-21T03:04:00;19.80;3.50
702;DHT22;334;48.808;9.222;2022-08-21T03:05:03;19.80;3.30
702;DHT22;334;48.808;9.222;2022-08-21T03:06:07;19.80;3.30
702;DHT22;334;48.808;9.222;2022-08-21T03:07:09;19.80;3.30
702;DHT22;334;48.808;9.222;2022-08-21T03:08:13;19.80;3.20
702;DHT22;334;48.808;9.222;2022-08-21T03:09:17;19.80;3.40
702;DHT22;334;48.808;9.222;2022-08-21T03:10:19;19.80;3.40
702;DHT22;334;48.808;9.222;2022-08-21T03:11:23;19.80;3.40
702;DHT22;334;48.808;9.222;2022-08-21T03:12:25;19.80;3.40
702;DHT22;334;48.808;9.222;2022-08-21T03:13:30;19.80;3.50
702;DHT22;334;48.808;9.222;2022-08-21T03:14:33;19.80;3.50
702;DHT22;334;48.808;9.222;2022-08-21T03:15:36;19.80;3.40
702;DHT22;334;48.808;9.222;2022-08-21T03:16:38;19.80;3.40
702;DHT22;334;48.808;9.222;2022-08-21T03:17:40;19.80;3.30
702;DHT22;334;48.808;9.222;2022-08-21T03:18:45;19.80;3.30
702;DHT22;334;48.808;9.222;2022-08-21T03:19:46;19.80;3.30
702;DHT22;334;48.808;9.222;2022-08-21T03:20:48;19.80;3.40
702;DHT22;334;48.808;9.222;2022-08-21T03:21:50;19.80;3.40
702;DHT22;334;48.808;9.222;2022-08-21T03:22:53;19.70;3.30
702;DHT22;334;48.808;9.222;2022-08-21T03:23:55;19.80;3.40
702;DHT22;334;48.808;9.222;2022-08-21T03:24:57;19.70;3.30
702;DHT22;334;48.808;9.222;2022-08-21T03:26:06;19.70;3.30
702;DHT22;334;48.808;9.222;2022-08-21T03:27:08;19.70;3.30
702;DHT22;334;48.808;9.222;2022-08-21T03:28:15;19.70;3.30
702;DHT22;334;48.808;9.222;2022-08-21T03:29:17;19.70;3.50
702;DHT22;334;48.808;9.222;2022-08-21T03:30:21;19.70;3.50
702;DHT22;334;48.808;9.222;2022-08-21T03:31:24;19.60;3.50
702;DHT22;334;48.808;9.222;2022-08-21T03:32:28;19.70;3.60
702;DHT22;334;48.808;9.222;2022-08-21T03:33:30;19.60;3.60
702;DHT22;334;48.808;9.222;2022-08-21T03:34:32;19.60;3.50
702;DHT22;334;48.808;9.222;2022-08-21T03:35:34;19.60;3.60
702;DHT22;334;48.808;9.222;2022-08-21T03:36:37;19.60;3.60
702;DHT22;334;48.808;9.222;2022-08-21T03:37:39;19.60;3.70
702;DHT22;334;48.808;9.222;2022-08-21T03:38:41;19.60;3.60
702;DHT22;334;48.808;9.222;2022-08-21T03:39:43;19.60;3.70
702;DHT22;334;48.808;9.222;2022-08-21T03:40:47;19.60;3.70
702;DHT22;334;48.808;9.222;2022-08-21T03:41:49;19.60;3.80
702;DHT22;334;48.808;9.222;2022-08-21T03:42:51;19.60;3.80
702;DHT22;334;48.808;9.222;2022-08-21T03:43:53;19.60;4.00
702;DHT22;334;48.808;9.222;2022-08-21T03:44:55;19.60;4.00
702;DHT22;334;48.808;9.222;2022-08-21T03:46:02;19.50;3.90
702;DHT22;334;48.808;9.222;2022-08-21T03:47:09;19.60;4.20
702;DHT22;334;48.808;9.222;2022-08-21T03:48:11;19.60;4.10
702;DHT22;334;48.808;9.222;2022-08-21T03:49:20;19.60;4.10
702;DHT22;334;48.808;9.222;2022-08-21T03:50:28;19.60;4.10
702;DHT22;334;48.808;9.222;2022-08-21T03:51:30;19.60;4.20
702;DHT22;334;48.808;9.222;2022-08-21T03:52:33;19.50;4.10
702;DHT22;334;48.808;9.222;2022-08-21T03:53:35;19.50;4.00
702;DHT22;334;48.808;9.222;2022-08-21T03:54:37;19.50;3.90
702;DHT22;334;48.808;9.222;2022-08-21T03:55:41;19.50;4.10
702;DHT22;334;48.808;9.222;2022-08-21T03:56:43;19.40;4.20
702;DHT22;334;48.808;9.222;2022-08-21T03:57:45;19.40;4.30
702;DHT22;334;48.808;9.222;2022-08-21T03:58:46;19.40;4.40
702;DHT22;334;48.808;9.222;2022-08-21T03:59:50;19.40;4.30
702;DHT22;334;48.808;9.222;2022-08-21T04:00:55;19.40;4.40
702;DHT22;334;48.808;9.222;2022-08-21T04:02:00;19.40;4.50
702;DHT22;334;48.808;9.222;2022-08-21T04:03:03;19.40;4.60
702;DHT22;334;48.808;9.222;2022-08-21T04:04:05;19.40;4.50
702;DHT22;334;48.808;9.222;2022-08-21T04:05:08;19.40;4.30
702;DHT22;334;48.808;9.222;2022-08-21T04:06:09;19.40;4.50
702;DHT22;334;48.808;9.222;2022-08-21T04:07:12;19.40;4.50
702;DHT22;334;48.808;9.222;2022-08-21T04:08:15;19.30;4.50
702;DHT22;334;48.808;9.222;2022-08-21T04:09:19;19.40;4.60
702;DHT22;334;48.808;9.222;2022-08-21T04:10:21;19.40;4.70
702;DHT22;334;48.808;9.222;2022-08-21T04:11:23;19.30;4.50
702;DHT22;334;48.808;9.222;2022-08-21T04:12:25;19.40;4.50
702;DHT22;334;48.808;9.222;2022-08-21T04:13:27;19.40;4.70
702;DHT22;334;48.808;9.222;2022-08-21T04:14:29;19.30;4.60
702;DHT22;334;48.808;9.222;2022-08-21T04:15:31;19.30;4.60
702;DHT22;334;48.808;9.222;2022-08-21T04:16:33;19.30;4.60
702;DHT22;334;48.808;9.222;2022-08-21T04:17:35;19.30;4.70
702;DHT22;334;48.808;9.222;2022-08-21T04:18:37;19.40;4.70
702;DHT22;334;48.808;9.222;2022-08-21T04:19:39;19.40;4.70
702;DHT22;334;48.808;9.222;2022-08-21T04:20:42;19.40;4.70
702;DHT22;334;48.808;9.222;2022-08-21T04:21:50;19.40;4.70
702;DHT22;334;48.808;9.222;2022-08-21T04:22:53;19.30;4.60
702;DHT22;334;48.808;9.222;2022-08-21T04:23:55;19.40;4.70
702;DHT22;334;48.808;9.222;2022-08-21T04:24:56;19.30;4.50
702;DHT22;334;48.808;9.222;2022-08-21T04:25:59;19.30;4.60
702;DHT22;334;48.808;9.222;2022-08-21T04:27:00;19.30;4.60
702;DHT22;334;48.808;9.222;2022-08-21T04:28:03;19.30;4.60
702;DHT22;334;48.808;9.222;2022-08-21T04:29:04;19.30;4.80
702;DHT22;334;48.808;9.222;2022-08-21T04:30:11;19.30;4.90
702;DHT22;334;48.808;9.222;2022-08-21T04:31:14;19.30;4.80
702;DHT22;334;48.808;9.222;2022-08-21T04:32:25;19.30;5.00
702;DHT22;334;48.808;9.222;2022-08-21T04:33:28;19.20;5.20
702;DHT22;334;48.808;9.222;2022-08-21T04:34:30;19.20;5.00
702;DHT22;334;48.808;9.222;2022-08-21T04:35:32;19.20;5.10
702;DHT22;334;48.808;9.222;2022-08-21T04:36:34;19.20;5.40
702;DHT22;334;48.808;9.222;2022-08-21T04:37:36;19.20;5.40
702;DHT22;334;48.808;9.222;2022-08-21T04:38:43;19.20;5.50
702;DHT22;334;48.808;9.222;2022-08-21T04:39:45;19.10;5.50
702;DHT22;334;48.808;9.222;2022-08-21T04:40:53;19.20;5.50
702;DHT22;334;48.808;9.222;2022-08-21T04:41:55;19.20;5.60
702;DHT22;334;48.808;9.222;2022-08-21T04:43:01;19.20;5.40
702;DHT22;334;48.808;9.222;2022-08-21T04:44:04;19.20;5.40
702;DHT22;334;48.808;9.222;2022-08-21T04:45:05;19.20;5.30
702;DHT22;334;48.808;9.222;2022-08-21T04:46:07;19.20;5.40
702;DHT22;334;48.808;9.222;2022-08-21T04:47:14;19.20;5.40
702;DHT22;334;48.808;9.222;2022-08-21T04:48:19;19.20;5.40
702;DHT22;334;48.808;9.222;2022-08-21T04:49:21;19.10;5.60
702;DHT22;334;48.808;9.222;2022-08-21T04:50:29;19.10;5.50
702;DHT22;334;48.808;9.222;2022-08-21T04:51:35;19.10;5.70
702;DHT22;334;48.808;9.222;2022-08-21T04:52:38;19.10;5.70
702;DHT22;334;48.808;9.222;2022-08-21T04:54:28;19.10;5.70
702;DHT22;334;48.808;9.222;2022-08-21T04:55:05;19.20;5.80
702;DHT22;334;48.808;9.222;2022-08-21T04:56:14;19.20;5.70
702;DHT22;334;48.808;9.222;2022-08-21T04:57:17;19.20;5.90
702;DHT22;334;48.808;9.222;2022-08-21T04:58:20;19.20;5.60
702;DHT22;334;48.808;9.222;2022-08-21T04:59:26;19.20;5.60
702;DHT22;334;48.808;9.222;2022-08-21T05:00:29;19.20;5.50
702;DHT22;334;48.808;9.222;2022-08-21T05:01:34;19.30;5.40
702;DHT22;334;48.808;9.222;2022-08-21T05:02:37;19.20;5.40
702;DHT22;334;48.808;9.222;2022-08-21T05:03:39;19.20;5.30
702;DHT22;334;48.808;9.222;2022-08-21T05:04:47;19.20;5.50
702;DHT22;334;48.808;9.222;2022-08-21T05:05:50;19.20;5.60
702;DHT22;334;48.808;9.222;2022-08-21T05:06:54;19.20;5.60
702;DHT22;334;48.808;9.222;2022-08-21T05:07:59;19.20;5.70
702;DHT22;334;48.808;9.222;2022-08-21T05:09:02;19.20;5.70
702;DHT22;334;48.808;9.222;2022-08-21T05:10:05;19.20;5.70
702;DHT22;334;48.808;9.222;2022-08-21T05:11:10;19.20;5.50
702;DHT22;334;48.808;9.222;2022-08-21T05:12:12;19.20;5.50
702;DHT22;334;48.808;9.222;2022-08-21T05:13:14;19.20;5.50
702;DHT22;334;48.808;9.222;2022-08-21T05:14:17;19.20;5.60
702;DHT22;334;48.808;9.222;2022-08-21T05:15:18;19.10;5.60
702;DHT22;334;48.808;9.222;2022-08-21T05:16:20;19.20;5.90
702;DHT22;334;48.808;9.222;2022-08-21T05:17:39;19.10;6.20
702;DHT22;334;48.808;9.222;2022-08-21T05:18:43;19.10;5.70
702;DHT22;334;48.808;9.222;2022-08-21T05:19:45;19.20;5.90
702;DHT22;334;48.808;9.222;2022-08-21T05:20:47;19.20;5.90
702;DHT22;334;48.808;9.222;2022-08-21T05:21:49;19.30;5.90
702;DHT22;334;48.808;9.222;2022-08-21T05:22:50;19.30;5.70
702;DHT22;334;48.808;9.222;2022-08-21T05:23:52;19.30;5.60
702;DHT22;334;48.808;9.222;2022-08-21T05:24:54;19.30;5.50
702;DHT22;334;48.808;9.222;2022-08-21T05:25:56;19.30;5.30
702;DHT22;334;48.808;9.222;2022-08-21T05:26:58;19.40;5.00
702;DHT22;334;48.808;9.222;2022-08-21T05:28:04;19.40;5.00
702;DHT22;334;48.808;9.222;2022-08-21T05:29:07;19.30;4.90
702;DHT22;334;48.808;9.222;2022-08-21T05:30:13;19.30;5.10
702;DHT22;334;48.808;9.222;2022-08-21T05:31:15;19.30;4.80
702;DHT22;334;48.808;9.222;2022-08-21T05:32:17;19.40;5.00
702;DHT22;334;48.808;9.222;2022-08-21T05:33:19;19.40;4.90
702;DHT22;334;48.808;9.222;2022-08-21T05:34:23;19.40;4.80
702;DHT22;334;48.808;9.222;2022-08-21T05:35:26;19.40;4.80
702;DHT22;334;48.808;9.222;2022-08-21T05:36:28;19.40;4.60
702;DHT22;334;48.808;9.222;2022-08-21T05:37:30;19.40;4.70
702;DHT22;334;48.808;9.222;2022-08-21T05:38:33;19.50;4.70
702;DHT22;334;48.808;9.222;2022-08-21T05:39:35;19.50;4.70
702;DHT22;334;48.808;9.222;2022-08-21T05:40:57;19.50;4.60
702;DHT22;334;48.808;9.222;2022-08-21T05:41:59;19.70;4.40
702;DHT22;334;48.808;9.222;2022-08-21T05:43:01;19.70;4.30
702;DHT22;334;48.808;9.222;2022-08-21T05:44:03;19.80;3.90
702;DHT22;334;48.808;9.222;2022-08-21T05:45:11;19.90;3.60
702;DHT22;334;48.808;9.222;2022-08-21T05:46:13;20.00;2.90
702;DHT22;334;48.808;9.222;2022-08-21T05:47:15;20.00;2.70
702;DHT22;334;48.808;9.222;2022-08-21T05:48:21;20.10;2.80
702;DHT22;334;48.808;9.222;2022-08-21T05:49:23;20.10;2.60
702;DHT22;334;48.808;9.222;2022-08-21T05:50:25;20.20;2.30
702;DHT22;334;48.808;9.222;2022-08-21T05:51:34;20.30;2.20
702;DHT22;334;48.808;9.222;2022-08-21T05:52:36;20.30;2.00
702;DHT22;334;48.808;9.222;2022-08-21T05:53:40;20.40;2.00
702;DHT22;334;48.808;9.222;2022-08-21T05:54:43;20.40;1.60
702;DHT22;334;48.808;9.222;2022-08-21T05:55:46;20.50;1.50
702;DHT22;334;48.808;9.222;2022-08-21T05:56:48;20.50;1.10
702;DHT22;334;48.808;9.222;2022-08-21T05:57:50;20.50;1.00
702;DHT22;334;48.808;9.222;2022-08-21T05:58:52;20.50;1.00
702;DHT22;334;48.808;9.222;2022-08-21T05:59:54;20.50;1.00
702;DHT22;334;48.808;9.222;2022-08-21T06:00:56;20.50;1.00
702;DHT22;334;48.808;9.222;2022-08-21T06:02:01;20.50;1.00
702;DHT22;334;48.808;9.222;2022-08-21T06:03:16;20.50;1.00
702;DHT22;334;48.808;9.222;2022-08-21T06:04:19;20.50;1.00
702;DHT22;334;48.808;9.222;2022-08-21T06:05:22;20.60;1.00
702;DHT22;334;48.808;9.222;2022-08-21T06:06:37;20.50;1.00
702;DHT22;334;48.808;9.222;2022-08-21T06:07:39;20.50;1.00
702;DHT22;334;48.808;9.222;2022-08-21T06:08:42;20.50;1.00
702;DHT22;334;48.808;9.222;2022-08-21T06:09:44;20.50;1.00
702;DHT22;334;48.808;9.222;2022-08-21T06:10:47;20.40;1.00
702;DHT22;334;48.808;9.222;2022-08-21T06:11:50;20.40;1.00
702;DHT22;334;48.808;9.222;2022-08-21T06:12:53;20.30;1.00
702;DHT22;334;48.808;9.222;2022-08-21T06:13:56;20.30;1.00
702;DHT22;334;48.808;9.222;2022-08-21T06:14:58;20.20;1.00
702;DHT22;334;48.808;9.222;2022-08-21T06:16:06;20.20;1.00
702;DHT22;334;48.808;9.222;2022-08-21T06:17:10;20.20;1.00
702;DHT22;334;48.808;9.222;2022-08-21T06:18:12;20.20;1.00
702;DHT22;334;48.808;9.222;2022-08-21T06:19:14;20.20;1.00
702;DHT22;334;48.808;9.222;2022-08-21T06:20:15;20.20;1.00
702;DHT22;334;48.808;9.222;2022-08-21T06:21:17;20.20;1.00
702;DHT22;334;48.808;9.222;2022-08-21T06:22:20;20.30;1.00
702;DHT22;334;48.808;9.222;2022-08-21T06:23:22;20.30;1.00
702;DHT22;334;48.808;9.222;2022-08-21T06:24:33;20.30;1.00
702;DHT22;334;48.808;9.222;2022-08-21T06:25:35;20.40;1.00
702;DHT22;334;48.808;9.222;2022-08-21T06:26:37;20.40;1.00
702;DHT22;334;48.808;9.222;2022-08-21T06:27:39;20.40;1.00
702;DHT22;334;48.808;9.222;2022-08-21T06:28:42;20.50;1.00
702;DHT22;334;48.808;9.222;2022-08-21T06:29:43;20.50;1.00
702;DHT22;334;48.808;9.222;2022-08-21T06:30:47;20.50;1.00
702;DHT22;334;48.808;9.222;2022-08-21T06:31:50;20.60;1.00
702;DHT22;334;48.808;9.222;2022-08-21T06:32:52;20.50;1.00
702;DHT22;334;48.808;9.222;2022-08-21T06:33:54;20.50;1.00
702;DHT22;334;48.808;9.222;2022-08-21T06:34:56;20.50;1.00
702;DHT22;334;48.808;9.222;2022-08-21T06:35:58;20.50;1.00
702;DHT22;334;48.808;9.222;2022-08-21T06:36:59;20.50;1.00
702;DHT22;334;48.808;9.222;2022-08-21T06:38:01;20.50;1.00
702;DHT22;334;48.808;9.222;2022-08-21T06:39:03;20.50;1.00
702;DHT22;334;48.808;9.222;2022-08-21T06:40:17;20.60;1.00
702;DHT22;334;48.808;9.222;2022-08-21T06:41:19;20.60;1.00
702;DHT22;334;48.808;9.222;2022-08-21T06:42:26;20.60;1.00
702;DHT22;334;48.808;9.222;2022-08-21T06:43:29;20.60;1.00
702;DHT22;334;48.808;9.222;2022-08-21T06:44:40;20.70;1.00
702;DHT22;334;48.808;9.222;2022-08-21T06:45:42;20.80;1.00
702;DHT22;334;48.808;9.222;2022-08-21T06:46:44;20.70;1.00
702;DHT22;334;48.808;9.222;2022-08-21T06:47:48;20.80;1.00
702;DHT22;334;48.808;9.222;2022-08-21T06:48:50;20.80;1.00
702;DHT22;334;48.808;9.222;2022-08-21T06:49:52;20.80;1.00
702;DHT22;334;48.808;9.222;2022-08-21T06:50:53;20.90;1.00
702;DHT22;334;48.808;9.222;2022-08-21T06:51:57;20.90;1.00
702;DHT22;334;48.808;9.222;2022-08-21T06:53:05;21.00;1.00
702;DHT22;334;48.808;9.222;2022-08-21T06:54:07;21.00;1.00
702;DHT22;334;48.808;9.222;2022-08-21T06:55:09;21.00;1.00
702;DHT22;334;48.808;9.222;2022-08-21T06:56:14;21.00;1.00
702;DHT22;334;48.808;9.222;2022-08-21T06:57:17;21.00;1.00
702;DHT22;334;48.808;9.222;2022-08-21T06:58:19;21.00;1.00
702;DHT22;334;48.808;9.222;2022-08-21T06:59:21;20.90;1.00
702;DHT22;334;48.808;9.222;2022-08-21T07:00:23;20.90;1.00
702;DHT22;334;48.808;9.222;2022-08-21T07:01:26;20.90;1.00
702;DHT22;334;48.808;9.222;2022-08-21T07:02:28;20.90;1.00
702;DHT22;334;48.808;9.222;2022-08-21T07:03:35;20.90;1.00
702;DHT22;334;48.808;9.222;2022-08-21T07:04:37;21.00;1.00
702;DHT22;334;48.808;9.222;2022-08-21T07:05:39;21.00;1.00
702;DHT22;334;48.808;9.222;2022-08-21T07:06:40;21.10;1.00
702;DHT22;334;48.808;9.222;2022-08-21T07:07:45;21.10;1.00
702;DHT22;334;48.808;9.222;2022-08-21T07:08:47;21.10;1.00
702;DHT22;334;48.808;9.222;2022-08-21T07:09:49;21.10;1.00
702;DHT22;334;48.808;9.222;2022-08-21T07:10:52;21.10;1.00
702;DHT22;334;48.808;9.222;2022-08-21T07:11:55;21.10;1.00
702;DHT22;334;48.808;9.222;2022-08-21T07:12:58;21.20;1.00
702;DHT22;334;48.808;9.222;2022-08-21T07:14:01;21.20;1.00
702;DHT22;334;48.808;9.222;2022-08-21T07:15:06;21.20;1.00
702;DHT22;334;48.808;9.222;2022-08-21T07:16:08;21.20;1.00
702;DHT22;334;48.808;9.222;2022-08-21T07:17:09;21.20;1.00
702;DHT22;334;48.808;9.222;2022-08-21T07:18:12;21.20;1.00
702;DHT22;334;48.808;9.222;2022-08-21T07:19:14;21.30;1.00